Time;durP1;ratioP1;P1;durP2;ratioP2;P2;SDS_P1;SDS_P2;PMS_P1;PMS_P2;Temp;Humidity;BMP_temperature;BMP_pressure;BME280_temperature;BME280_humidity;BME280_pressure;Samples;Min_cycle;Max_cycle;Signal;HPM_P1;HPM_P2
2023/08/03 00:00:42;;;;;;;13.00;2.20;;;;;;;14.42;100.00;91943.28;2087412;28;20060;-85
2023/08/03 00:01:44;;;;;;;12.52;2.30;;;;;;;14.42;100.00;91954.75;2086412;28;20071;-85
2023/08/03 00:02:46;;;;;;;10.65;2.28;;;;;;;14.49;100.00;91945.59;2075728;28;20543;-86
2023/08/03 00:03:47;;;;;;;14.48;2.08;;;;;;;14.42;100.00;91938.63;2074747;28;20017;-85
2023/08/03 00:04:48;;;;;;;11.70;2.10;;;;;;;14.60;100.00;91935.72;2082378;28;20360;-84
2023/08/03 00:05:49;;;;;;;8.75;1.75;;;;;;;14.76;100.00;91931.03;2084088;28;20033;-84
2023/08/03 00:06:50;;;;;;;9.32;1.70;;;;;;;14.66;100.00;91937.72;2066091;28;20497;-84
2023/08/03 00:07:51;;;;;;;8.93;1.70;;;;;;;14.67;100.00;91942.66;2072917;28;20033;-86
2023/08/03 00:08:58;;;;;;;10.40;2.08;;;;;;;14.62;100.00;91943.31;2074387;28;20492;-84
2023/08/03 00:10:00;;;;;;;12.10;1.50;;;;;;;14.51;100.00;91927.03;2075315;28;20037;-85
2023/08/03 00:11:01;;;;;;;10.25;1.83;;;;;;;14.53;100.00;91946.13;2071620;28;20045;-85
2023/08/03 00:12:02;;;;;;;10.85;1.77;;;;;;;14.49;100.00;91927.50;2074276;28;20029;-84
2023/08/03 00:13:03;;;;;;;10.20;2.10;;;;;;;14.48;100.00;91942.16;2074248;28;20386;-85
2023/08/03 00:14:04;;;;;;;13.98;2.15;;;;;;;14.49;100.00;91962.47;2073967;28;20022;-86
2023/08/03 00:15:06;;;;;;;10.73;1.60;;;;;;;14.58;100.00;91954.28;2074159;28;20026;-85
2023/08/03 00:16:07;;;;;;;12.35;1.63;;;;;;;14.74;100.00;91947.63;2077732;28;20021;-87
2023/08/03 00:17:08;;;;;;;7.78;2.05;;;;;;;14.64;100.00;91940.91;2077249;28;20034;-84
2023/08/03 00:18:09;;;;;;;11.00;2.25;;;;;;;14.69;100.00;91944.88;2080051;28;20102;-85
2023/08/03 00:19:11;;;;;;;10.35;1.95;;;;;;;14.66;100.00;91945.78;2078251;28;20052;-85
2023/08/03 00:20:12;;;;;;;11.88;2.33;;;;;;;14.65;100.00;91945.06;2082404;28;20454;-86
2023/08/03 00:21:14;;;;;;;11.88;1.85;;;;;;;14.74;100.00;91952.25;2074628;28;20030;-85
2023/08/03 00:22:15;;;;;;;8.98;2.05;;;;;;;14.82;100.00;91954.06;2094843;28;20041;-87
2023/08/03 00:23:16;;;;;;;10.95;1.90;;;;;;;14.48;100.00;91942.16;2107314;28;20047;-86
2023/08/03 00:24:17;;;;;;;10.38;1.77;;;;;;;14.43;100.00;91945.47;2090353;28;20075;-84
2023/08/03 00:25:18;;;;;;;8.25;1.88;;;;;;;14.18;100.00;91946.09;2090357;28;20104;-84
2023/08/03 00:26:19;;;;;;;13.10;2.40;;;;;;;14.27;100.00;91940.63;2090341;28;20021;-84
2023/08/03 00:27:20;;;;;;;12.20;1.95;;;;;;;14.36;100.00;91951.25;2093003;28;20093;-84
2023/08/03 00:28:22;;;;;;;12.65;2.63;;;;;;;14.43;100.00;91950.84;2082303;28;20026;-85
2023/08/03 00:29:23;;;;;;;10.63;2.08;;;;;;;14.38;100.00;91951.53;2088307;28;20021;-85
2023/08/03 00:30:24;;;;;;;13.70;2.00;;;;;;;14.38;100.00;91951.53;2082003;28;20022;-86
2023/08/03 00:31:25;;;;;;;12.02;2.10;;;;;;;14.28;100.00;91950.16;2090616;28;20464;-85
2023/08/03 00:32:26;;;;;;;12.02;2.13;;;;;;;14.25;100.00;91959.16;2098584;28;20027;-85
2023/08/03 00:33:36;;;;;;;12.98;2.72;;;;;;;14.28;100.00;91950.91;2082064;28;20033;-85
2023/08/03 00:34:43;;;;;;;9.73;1.90;;;;;;;14.28;100.00;91953.59;2077880;28;20030;-87
2023/08/03 00:35:44;;;;;;;10.35;1.88;;;;;;;14.49;100.00;91949.03;2087572;28;20055;-84
2023/08/03 00:36:45;;;;;;;10.93;1.95;;;;;;;14.44;100.00;91954.28;2106901;28;20020;-84
2023/08/03 00:37:46;;;;;;;12.18;2.15;;;;;;;14.36;100.00;91962.00;2091951;28;20032;-85
2023/08/03 00:38:47;;;;;;;12.38;2.97;;;;;;;14.37;100.00;91955.44;2090257;28;20053;-85
2023/08/03 00:39:47;;;;;;;11.60;2.13;;;;;;;14.48;100.00;91957.50;2090398;28;20017;-84
2023/08/03 00:40:51;;;;;;;13.32;2.08;;;;;;;14.63;100.00;91963.63;2085553;28;20025;-87
2023/08/03 00:41:53;;;;;;;13.30;2.38;;;;;;;14.54;100.00;91950.31;2082641;28;20025;-84
2023/08/03 00:42:54;;;;;;;17.45;2.42;;;;;;;14.49;100.00;91961.72;2089487;28;20029;-85
2023/08/03 00:43:54;;;;;;;12.30;2.05;;;;;;;14.52;100.00;91963.47;2084160;28;20021;-85
2023/08/03 00:44:55;;;;;;;10.82;2.13;;;;;;;14.57;100.00;91968.19;2090370;28;20021;-83
2023/08/03 00:45:56;;;;;;;17.08;2.13;;;;;;;14.66;100.00;91951.19;2078738;28;20104;-85
2023/08/03 00:46:59;;;;;;;12.00;1.95;;;;;;;14.70;100.00;91963.22;2085944;28;20029;-85
2023/08/03 00:48:01;;;;;;;14.70;2.88;;;;;;;14.73;100.00;91950.78;2090666;28;20047;-85
2023/08/03 00:49:02;;;;;;;12.70;1.98;;;;;;;14.74;100.00;91957.63;2079691;28;20040;-85
2023/08/03 00:50:04;;;;;;;8.80;1.73;;;;;;;14.74;100.00;91950.31;2082368;28;20108;-85
2023/08/03 00:51:05;;;;;;;12.32;2.08;;;;;;;14.57;100.00;91950.13;2088257;28;20111;-84
2023/08/03 00:52:07;;;;;;;10.40;2.25;;;;;;;14.48;100.00;91958.28;2081653;28;20026;-85
2023/08/03 00:53:11;;;;;;;8.65;1.60;;;;;;;14.58;100.00;91964.28;2081866;28;20032;-85
2023/08/03 00:54:24;;;;;;;13.60;2.25;;;;;;;14.60;100.00;91959.91;2092616;28;20032;-84
2023/08/03 00:55:25;;;;;;;12.27;2.25;;;;;;;14.53;100.00;91968.41;2090052;28;20116;-85
2023/08/03 00:56:27;;;;;;;14.43;2.03;;;;;;;14.67;100.00;91950.72;2097034;28;20051;-85
2023/08/03 00:57:28;;;;;;;11.43;2.05;;;;;;;14.64;100.00;91951.66;2087707;28;20021;-85
2023/08/03 00:58:29;;;;;;;14.80;1.90;;;;;;;14.67;100.00;91963.44;2092088;28;20393;-84
2023/08/03 00:59:30;;;;;;;14.40;1.67;;;;;;;14.54;100.00;91959.13;2082683;28;20053;-84
2023/08/03 01:00:31;;;;;;;11.15;1.92;;;;;;;14.73;100.00;91958.84;2084961;28;20075;-83
2023/08/03 01:01:33;;;;;;;12.40;1.80;;;;;;;14.63;100.00;91957.50;2083257;28;20020;-84
2023/08/03 01:02:34;;;;;;;10.40;2.22;;;;;;;14.52;100.00;91960.78;2088257;28;20097;-85
2023/08/03 01:03:35;;;;;;;13.18;2.00;;;;;;;14.46;100.00;91958.00;2101632;28;20125;-83
2023/08/03 01:04:36;;;;;;;13.13;2.28;;;;;;;14.68;100.00;91956.84;2084521;28;20021;-85
2023/08/03 01:05:37;;;;;;;7.50;1.63;;;;;;;14.55;100.00;91939.06;2085504;28;20524;-84
2023/08/03 01:06:38;;;;;;;8.32;1.92;;;;;;;14.57;100.00;91965.50;2073898;28;20018;-84
2023/08/03 01:07:39;;;;;;;14.13;1.77;;;;;;;14.53;100.00;91946.88;2089340;28;20091;-85
2023/08/03 01:08:40;;;;;;;13.75;2.10;;;;;;;14.71;100.00;91943.19;2100931;28;20028;-84
2023/08/03 01:09:44;;;;;;;8.45;1.83;;;;;;;14.59;100.00;91945.00;2081827;28;20021;-85
2023/08/03 01:10:46;;;;;;;8.13;1.67;;;;;;;14.49;100.00;91954.41;2077654;28;20053;-85
2023/08/03 01:11:47;;;;;;;14.55;1.95;;;;;;;14.53;100.00;91959.56;2073793;28;20045;-84
2023/08/03 01:12:48;;;;;;;16.05;2.53;;;;;;;14.45;100.00;91945.75;2088086;28;20107;-85
2023/08/03 01:13:49;;;;;;;9.73;1.98;;;;;;;14.36;100.00;91941.25;2091217;28;20528;-85
2023/08/03 01:14:50;;;;;;;8.98;1.77;;;;;;;14.36;100.00;91954.69;2096162;28;20107;-83
2023/08/03 01:15:51;;;;;;;11.85;1.88;;;;;;;14.42;100.00;91951.34;2088107;28;20021;-83
2023/08/03 01:16:52;;;;;;;8.63;2.00;;;;;;;14.43;100.00;91947.44;2086948;28;20121;-85
2023/08/03 01:17:53;;;;;;;7.10;1.40;;;;;;;14.53;100.00;91962.25;2105380;28;20073;-84
2023/08/03 01:18:54;;;;;;;14.35;2.10;;;;;;;14.56;100.00;91951.31;2098096;28;20027;-84
2023/08/03 01:19:56;;;;;;;15.30;2.00;;;;;;;14.61;100.00;91964.06;2090027;28;20107;-85
2023/08/03 01:20:57;;;;;;;10.05;1.90;;;;;;;14.59;100.00;91965.78;2094667;28;20097;-84
2023/08/03 01:22:00;;;;;;;12.60;2.30;;;;;;;14.54;100.00;91942.97;2081527;28;20518;-85
2023/08/03 01:23:04;;;;;;;13.15;1.90;;;;;;;14.47;100.00;91946.03;2081981;28;20032;-85
2023/08/03 01:24:05;;;;;;;11.57;2.20;;;;;;;14.58;100.00;91951.59;2085371;28;20039;-84
2023/08/03 01:25:09;;;;;;;11.68;1.92;;;;;;;14.73;100.00;91946.16;2081690;28;20089;-83
2023/08/03 01:26:10;;;;;;;14.30;2.28;;;;;;;14.57;100.00;91944.75;2096395;28;20028;-84
2023/08/03 01:27:11;;;;;;;12.88;2.45;;;;;;;14.45;100.00;91937.69;2099585;28;20025;-85
2023/08/03 01:28:12;;;;;;;10.20;2.38;;;;;;;14.47;100.00;91937.97;2091949;28;20500;-83
2023/08/03 01:29:13;;;;;;;11.55;2.20;;;;;;;14.59;100.00;91936.94;2093453;28;20029;-85
2023/08/03 01:30:14;;;;;;;13.95;2.50;;;;;;;14.46;100.00;91935.75;2104578;28;20024;-84
2023/08/03 01:31:16;;;;;;;9.75;2.00;;;;;;;14.64;100.00;91938.22;2105527;28;20102;-85
2023/08/03 01:32:18;;;;;;;17.73;2.38;;;;;;;14.56;100.00;91934.44;2103645;28;20447;-83
2023/08/03 01:33:19;;;;;;;10.57;2.13;;;;;;;14.70;100.00;91925.56;2081764;28;20033;-84
2023/08/03 01:34:20;;;;;;;18.98;2.47;;;;;;;14.49;100.00;91926.78;2081613;28;20116;-84
2023/08/03 01:35:21;;;;;;;11.40;1.95;;;;;;;14.52;100.00;91925.81;2085773;28;20021;-85
2023/08/03 01:36:23;;;;;;;9.10;2.00;;;;;;;14.44;100.00;91928.13;2090150;28;20056;-83
2023/08/03 01:37:26;;;;;;;17.15;2.22;;;;;;;14.39;100.00;91928.06;2081584;28;20025;-82
2023/08/03 01:38:27;;;;;;;16.65;2.00;;;;;;;14.26;100.00;91931.06;2082326;28;20025;-82
2023/08/03 01:39:28;;;;;;;14.73;2.58;;;;;;;14.27;100.00;91921.81;2096196;28;20016;-84
2023/08/03 01:40:31;;;;;;;12.48;2.70;;;;;;;14.43;100.00;91937.41;2081820;28;20430;-84
2023/08/03 01:41:35;;;;;;;13.05;2.60;;;;;;;14.37;100.00;91936.59;2090729;28;20132;-83
2023/08/03 01:42:36;;;;;;;15.25;2.05;;;;;;;14.42;100.00;91930.56;2090148;28;20025;-83
2023/08/03 01:43:37;;;;;;;17.70;2.50;;;;;;;14.34;100.00;91929.47;2089937;28;20059;-83
2023/08/03 01:44:38;;;;;;;11.65;1.85;;;;;;;14.51;100.00;91945.84;2096781;28;20457;-83
2023/08/03 01:45:40;;;;;;;15.07;2.70;;;;;;;14.44;100.00;91943.53;2087341;28;20036;-84
2023/08/03 01:46:41;;;;;;;10.75;1.80;;;;;;;14.34;100.00;91946.34;2090153;28;20119;-83
2023/08/03 01:47:42;;;;;;;10.45;2.00;;;;;;;14.24;100.00;91944.97;2098478;28;20035;-83
2023/08/03 01:48:43;;;;;;;16.45;2.53;;;;;;;14.19;100.00;91959.09;2089597;28;20088;-85
2023/08/03 01:49:44;;;;;;;12.57;1.60;;;;;;;14.53;100.00;91952.25;2081501;28;20025;-83
2023/08/03 01:50:45;;;;;;;11.30;1.75;;;;;;;14.50;100.00;91947.06;2076774;28;20032;-83
2023/08/03 01:51:46;;;;;;;10.30;1.83;;;;;;;14.41;100.00;91947.16;2089788;28;20060;-84
2023/08/03 01:52:48;;;;;;;12.15;1.95;;;;;;;14.44;100.00;91955.00;2098686;28;20016;-84
2023/08/03 01:53:53;;;;;;;16.40;2.08;;;;;;;14.45;100.00;91956.53;2105214;28;20096;-84
2023/08/03 01:54:54;;;;;;;10.95;1.60;;;;;;;14.39;100.00;91950.31;2090424;28;20029;-85
2023/08/03 01:55:55;;;;;;;10.13;1.92;;;;;;;14.35;100.00;91957.81;2093364;28;20025;-83
2023/08/03 01:56:56;;;;;;;11.90;2.40;;;;;;;14.51;100.00;91972.75;2106335;28;20032;-85
2023/08/03 01:57:57;;;;;;;15.20;2.15;;;;;;;14.55;100.00;91957.91;2098355;28;20024;-84
2023/08/03 01:58:58;;;;;;;9.10;2.10;;;;;;;14.49;100.00;91969.81;2101518;28;20057;-83
2023/08/03 02:00:00;;;;;;;15.65;2.58;;;;;;;14.39;100.00;91971.06;2089759;28;20028;-83
2023/08/03 02:01:02;;;;;;;8.80;2.05;;;;;;;14.49;100.00;91967.13;2091884;28;20029;-83
2023/08/03 02:02:03;;;;;;;12.73;2.30;;;;;;;14.38;100.00;91962.28;2097685;28;20023;-84
2023/08/03 02:03:04;;;;;;;16.80;2.85;;;;;;;14.44;100.00;91963.09;2081503;28;20021;-84
2023/08/03 02:04:05;;;;;;;11.93;2.08;;;;;;;14.32;100.00;91961.47;2097668;28;20021;-83
2023/08/03 02:05:07;;;;;;;12.95;1.73;;;;;;;14.32;100.00;91966.84;2105774;28;20020;-83
2023/08/03 02:06:17;;;;;;;20.70;3.30;;;;;;;14.39;100.00;91971.06;2094773;28;20079;-84
2023/08/03 02:07:53;;;;;;;14.85;1.70;;;;;;;14.55;100.00;91973.28;2097901;28;20050;-84
2023/08/03 02:08:54;;;;;;;10.30;1.67;;;;;;;14.57;100.00;91979.69;2104468;28;20028;-85
2023/08/03 02:09:55;;;;;;;12.88;1.52;;;;;;;14.36;100.00;91964.72;2081458;28;20049;-83
2023/08/03 02:10:57;;;;;;;15.23;2.15;;;;;;;14.33;100.00;91974.44;2085911;28;20516;-83
2023/08/03 02:11:58;;;;;;;12.95;1.83;;;;;;;14.31;100.00;91982.25;2089632;28;20039;-84
2023/08/03 02:12:59;;;;;;;14.63;1.77;;;;;;;14.39;100.00;91977.19;2080813;28;20496;-85
2023/08/03 02:14:00;;;;;;;13.98;2.40;;;;;;;14.15;100.00;91985.41;2081147;28;20029;-82
2023/08/03 02:15:02;;;;;;;13.32;2.35;;;;;;;14.08;100.00;91975.78;2073359;28;20028;-85
2023/08/03 02:16:04;;;;;;;12.93;2.03;;;;;;;14.20;100.00;91976.69;2087144;28;20021;-84
2023/08/03 02:17:05;;;;;;;14.48;2.00;;;;;;;14.14;100.00;91967.81;2089278;28;20080;-84
2023/08/03 02:18:06;;;;;;;12.82;1.90;;;;;;;14.06;100.00;91972.06;2073409;28;20084;-86
2023/08/03 02:19:07;;;;;;;15.32;2.35;;;;;;;13.89;100.00;91984.50;2084738;28;20021;-84
2023/08/03 02:20:09;;;;;;;11.73;1.80;;;;;;;13.73;100.00;91983.75;2081278;28;20021;-84
2023/08/03 02:21:10;;;;;;;13.88;1.65;;;;;;;13.98;100.00;91984.41;2081703;28;20075;-82
2023/08/03 02:22:11;;;;;;;9.15;1.50;;;;;;;14.07;100.00;91989.69;2094129;28;20068;-85
2023/08/03 02:23:11;;;;;;;10.65;1.83;;;;;;;14.09;100.00;91979.97;2089437;28;20128;-85
2023/08/03 02:24:12;;;;;;;14.18;1.80;;;;;;;14.20;100.00;91975.94;2097733;28;20036;-84
2023/08/03 02:25:15;;;;;;;10.85;1.48;;;;;;;14.21;100.00;91985.47;2081143;28;20033;-84
2023/08/03 02:26:16;;;;;;;9.95;2.47;;;;;;;14.11;100.00;91971.41;2089095;28;20051;-84
2023/08/03 02:27:17;;;;;;;9.27;1.42;;;;;;;14.10;100.00;91975.31;2088302;28;21676;-85
2023/08/03 02:28:18;;;;;;;9.88;1.63;;;;;;;14.02;100.00;91968.84;2081446;28;20040;-85
2023/08/03 02:29:19;;;;;;;14.20;1.80;;;;;;;13.94;100.00;91968.47;2085951;28;20021;-84
2023/08/03 02:30:20;;;;;;;10.88;1.48;;;;;;;13.79;100.00;91981.19;2073373;28;20053;-83
2023/08/03 02:31:21;;;;;;;12.50;1.30;;;;;;;13.74;100.00;91977.19;2081382;28;20037;-84
2023/08/03 02:32:24;;;;;;;6.63;1.15;;;;;;;13.89;100.00;91963.75;2081460;28;20539;-84
2023/08/03 02:33:25;;;;;;;14.18;2.15;;;;;;;14.08;100.00;91970.41;2089593;28;20025;-84
2023/08/03 02:34:26;;;;;;;9.23;1.20;;;;;;;14.04;100.00;91977.16;2089392;28;20048;-83
2023/08/03 02:35:27;;;;;;;8.45;1.58;;;;;;;13.86;100.00;91965.41;2098030;28;20029;-83
2023/08/03 02:36:28;;;;;;;9.88;1.30;;;;;;;13.79;100.00;91975.81;2081243;28;20029;-84
2023/08/03 02:37:29;;;;;;;7.05;1.98;;;;;;;13.87;100.00;91976.91;2089116;28;20017;-83
2023/08/03 02:38:30;;;;;;;7.60;1.67;;;;;;;13.95;100.00;91975.31;2089522;28;20062;-83
2023/08/03 02:39:31;;;;;;;10.02;1.58;;;;;;;13.93;100.00;91969.69;2104313;28;20069;-84
2023/08/03 02:40:32;;;;;;;9.50;1.60;;;;;;;13.86;100.00;91981.53;2090633;28;20028;-82
2023/08/03 02:41:33;;;;;;;8.85;1.27;;;;;;;13.82;100.00;91980.22;2089291;28;20029;-84
2023/08/03 02:42:36;;;;;;;8.23;1.65;;;;;;;13.89;100.00;91977.19;2085470;28;20024;-82
2023/08/03 02:43:37;;;;;;;10.07;1.38;;;;;;;13.97;100.00;92005.16;2076055;28;20056;-85
2023/08/03 02:44:38;;;;;;;5.53;1.20;;;;;;;13.88;100.00;91975.72;2093268;28;20024;-85
2023/08/03 02:45:39;;;;;;;8.82;1.30;;;;;;;13.85;100.00;91979.31;2093113;28;20574;-84
2023/08/03 02:46:40;;;;;;;7.47;1.20;;;;;;;13.70;100.00;91982.00;2090564;28;20362;-84
2023/08/03 02:47:41;;;;;;;6.85;1.20;;;;;;;13.89;100.00;91990.63;2094563;28;20043;-84
2023/08/03 02:48:42;;;;;;;12.73;1.60;;;;;;;13.71;100.00;91983.50;2081221;28;20032;-82
2023/08/03 02:49:43;;;;;;;13.88;1.60;;;;;;;13.62;100.00;91972.09;2089510;28;20041;-84
2023/08/03 02:50:44;;;;;;;11.82;1.27;;;;;;;13.66;100.00;92002.19;2097369;28;20063;-83
2023/08/03 02:51:45;;;;;;;12.82;1.60;;;;;;;13.48;100.00;91990.44;2089508;28;20025;-83
2023/08/03 02:52:46;;;;;;;12.05;1.65;;;;;;;13.39;100.00;91984.38;2091713;28;20037;-83
2023/08/03 02:53:47;;;;;;;12.68;1.98;;;;;;;13.31;100.00;91987.44;2081988;28;20018;-83
2023/08/03 02:54:48;;;;;;;12.02;1.70;;;;;;;13.47;100.00;91986.25;2081424;28;20017;-84
2023/08/03 02:55:51;;;;;;;13.07;1.55;;;;;;;13.41;100.00;91993.47;2081266;28;20017;-84
2023/08/03 02:56:52;;;;;;;9.00;1.20;;;;;;;13.26;100.00;91993.44;2089778;28;20726;-85
2023/08/03 02:57:53;;;;;;;10.10;1.70;;;;;;;13.02;100.00;91992.69;2081025;28;20021;-83
2023/08/03 02:58:54;;;;;;;7.57;1.80;;;;;;;13.14;100.00;92007.06;2073139;28;20033;-83
2023/08/03 02:59:55;;;;;;;11.43;1.35;;;;;;;12.96;100.00;92005.28;2081391;28;20037;-85
2023/08/03 03:00:56;;;;;;;6.18;1.33;;;;;;;12.87;100.00;92003.38;2092518;28;20465;-86
2023/08/03 03:01:57;;;;;;;15.52;1.85;;;;;;;12.84;100.00;92007.72;2081199;28;20022;-84
2023/08/03 03:02:58;;;;;;;11.13;1.52;;;;;;;12.79;100.00;92007.59;2088609;28;20025;-84
2023/08/03 03:03:59;;;;;;;12.30;1.55;;;;;;;12.68;100.00;92010.03;2097591;28;20028;-85
2023/08/03 03:05:00;;;;;;;8.75;1.20;;;;;;;12.66;100.00;92015.88;2105841;28;20042;-83
2023/08/03 03:06:01;;;;;;;7.25;1.48;;;;;;;12.68;100.00;91999.31;2097417;28;20020;-82
2023/08/03 03:07:02;;;;;;;7.20;1.15;;;;;;;12.70;100.00;92010.34;2097699;28;20036;-84
2023/08/03 03:08:03;;;;;;;6.72;1.35;;;;;;;12.78;100.00;91993.47;2089219;28;20108;-83
2023/08/03 03:09:04;;;;;;;13.52;1.85;;;;;;;12.70;100.00;92010.34;2088682;28;20025;-84
2023/08/03 03:10:06;;;;;;;10.68;1.60;;;;;;;12.87;100.00;92008.75;2089227;28;20016;-85
2023/08/03 03:11:06;;;;;;;9.45;1.50;;;;;;;12.90;100.00;92007.06;2090936;28;20024;-85
2023/08/03 03:12:10;;;;;;;8.48;1.30;;;;;;;12.78;100.00;91998.09;2092174;28;20028;-84
2023/08/03 03:13:11;;;;;;;9.52;1.75;;;;;;;12.70;100.00;91981.59;2089911;28;20025;-82
2023/08/03 03:14:12;;;;;;;18.73;1.90;;;;;;;12.62;100.00;92001.16;2081153;28;20136;-85
2023/08/03 03:15:13;;;;;;;13.82;2.53;;;;;;;12.67;100.00;91993.22;2072822;28;20045;-83
2023/08/03 03:16:25;;;;;;;10.18;1.52;;;;;;;12.98;100.00;91989.44;2082064;28;20096;-86
2023/08/03 03:17:26;;;;;;;10.32;1.40;;;;;;;12.88;100.00;91993.41;2091638;28;20393;-83
2023/08/03 03:18:27;;;;;;;8.88;1.70;;;;;;;12.76;100.00;91992.41;2091086;28;20064;-84
2023/08/03 03:19:28;;;;;;;13.98;2.05;;;;;;;12.87;100.00;91989.97;2090977;28;20480;-85
2023/08/03 03:20:29;;;;;;;10.18;1.55;;;;;;;12.56;100.00;91988.38;2082633;28;20566;-83
2023/08/03 03:21:30;;;;;;;10.43;1.52;;;;;;;12.69;100.00;91995.47;2090132;28;20047;-86
2023/08/03 03:22:31;;;;;;;6.53;0.98;;;;;;;12.82;100.00;91990.63;2090538;28;20115;-85
2023/08/03 03:23:32;;;;;;;9.50;1.92;;;;;;;12.67;100.00;91993.22;2082847;28;20022;-84
2023/08/03 03:24:33;;;;;;;7.75;1.05;;;;;;;12.62;100.00;91998.47;2087750;28;20056;-84
2023/08/03 03:25:35;;;;;;;8.82;1.38;;;;;;;12.71;100.00;91996.47;2090930;28;20111;-84
2023/08/03 03:26:35;;;;;;;15.32;1.85;;;;;;;12.73;100.00;91996.00;2088203;28;20805;-83
2023/08/03 03:27:36;;;;;;;6.30;1.17;;;;;;;12.69;100.00;91987.41;2096510;28;20052;-84
2023/08/03 03:28:37;;;;;;;7.95;1.17;;;;;;;12.63;100.00;91995.31;2090923;28;20029;-85
2023/08/03 03:29:38;;;;;;;8.95;1.20;;;;;;;12.50;100.00;92000.91;2081410;28;20033;-84
2023/08/03 03:30:39;;;;;;;6.15;0.82;;;;;;;12.60;100.00;92007.72;2107293;28;20035;-84
2023/08/03 03:31:40;;;;;;;7.32;1.30;;;;;;;12.60;100.00;92013.06;2099159;28;20021;-85
2023/08/03 03:32:41;;;;;;;7.82;1.63;;;;;;;12.46;100.00;92005.69;2093808;28;20028;-84
2023/08/03 03:33:42;;;;;;;15.48;2.08;;;;;;;12.45;100.00;92000.78;2099492;28;20106;-86
2023/08/03 03:34:43;;;;;;;9.00;1.63;;;;;;;12.63;100.00;92008.00;2107289;28;20028;-85
2023/08/03 03:35:45;;;;;;;8.27;1.15;;;;;;;12.53;100.00;92005.38;2099607;28;20029;-84
2023/08/03 03:36:47;;;;;;;7.68;1.50;;;;;;;12.46;100.00;92018.34;2074486;28;20028;-83
2023/08/03 03:37:47;;;;;;;8.63;1.50;;;;;;;12.41;100.00;92013.59;2090928;28;20025;-83
2023/08/03 03:38:48;;;;;;;9.10;1.38;;;;;;;12.41;100.00;92005.56;2090774;28;20108;-83
2023/08/03 03:39:49;;;;;;;11.82;1.77;;;;;;;12.32;100.00;92017.06;2089511;28;20052;-84
2023/08/03 03:40:51;;;;;;;8.95;1.75;;;;;;;12.46;100.00;92023.72;2084203;28;20060;-84
2023/08/03 03:41:52;;;;;;;10.32;1.15;;;;;;;12.50;100.00;92026.97;2107471;28;20028;-84
2023/08/03 03:42:53;;;;;;;8.00;1.20;;;;;;;12.52;100.00;92032.63;2090682;28;20461;-84
2023/08/03 03:43:54;;;;;;;19.38;1.58;;;;;;;12.62;100.00;92020.66;2074346;28;20026;-83
2023/08/03 03:44:55;;;;;;;8.30;1.10;;;;;;;12.50;100.00;92030.38;2074691;28;20026;-84
2023/08/03 03:45:56;;;;;;;10.15;1.30;;;;;;;12.53;100.00;92028.75;2084570;28;20091;-84
2023/08/03 03:46:57;;;;;;;9.75;1.15;;;;;;;12.46;100.00;92023.72;2094382;28;20349;-84
2023/08/03 03:47:59;;;;;;;6.00;1.00;;;;;;;12.54;100.00;92022.19;2093678;28;20401;-84
2023/08/03 03:49:00;;;;;;;8.93;1.85;;;;;;;12.48;100.00;92032.06;2090625;28;20459;-84
2023/08/03 03:50:04;;;;;;;9.48;1.15;;;;;;;12.48;100.00;92026.69;2083059;28;20029;-84
2023/08/03 03:51:05;;;;;;;9.50;2.08;;;;;;;12.42;100.00;92034.59;2087406;28;20021;-85
2023/08/03 03:52:07;;;;;;;11.32;1.58;;;;;;;12.43;100.00;92030.72;2107556;28;20499;-85
2023/08/03 03:53:07;;;;;;;15.98;1.75;;;;;;;12.46;100.00;92026.38;2092117;28;20032;-84
2023/08/03 03:54:08;;;;;;;12.15;1.70;;;;;;;12.44;100.00;92039.50;2090568;28;20433;-85
2023/08/03 03:55:09;;;;;;;6.10;1.00;;;;;;;12.45;100.00;92041.72;2098912;28;20409;-85
2023/08/03 03:56:10;;;;;;;7.93;1.65;;;;;;;12.44;100.00;92042.19;2082416;28;20021;-84
2023/08/03 03:57:12;;;;;;;5.28;1.17;;;;;;;12.46;100.00;92040.53;2082790;28;20021;-85
2023/08/03 03:58:13;;;;;;;8.95;1.48;;;;;;;12.52;100.00;92033.38;2098149;28;20028;-83
2023/08/03 03:59:14;;;;;;;8.88;1.20;;;;;;;12.62;100.00;92041.38;2096922;28;20020;-83
2023/08/03 04:00:15;;;;;;;11.10;1.70;;;;;;;12.67;100.00;92038.78;2090721;28;20447;-84
2023/08/03 04:01:16;;;;;;;5.22;1.17;;;;;;;12.60;100.00;92034.53;2086701;28;20096;-85
2023/08/03 04:02:17;;;;;;;13.60;1.30;;;;;;;12.55;100.00;92045.09;2090537;28;20366;-83
2023/08/03 04:03:18;;;;;;;9.88;1.73;;;;;;;12.50;100.00;92029.66;2098618;28;20031;-82
2023/08/03 04:04:18;;;;;;;8.57;1.27;;;;;;;12.54;100.00;92046.31;2098903;28;20017;-85
2023/08/03 04:05:19;;;;;;;5.57;1.25;;;;;;;12.46;100.00;92032.50;2082361;28;20026;-83
2023/08/03 04:06:20;;;;;;;10.73;1.60;;;;;;;12.53;100.00;92034.84;2095916;28;20131;-84
2023/08/03 04:07:21;;;;;;;11.35;1.70;;;;;;;12.80;100.00;92035.91;2090575;28;20096;-84
2023/08/03 04:08:23;;;;;;;9.35;1.48;;;;;;;12.73;100.00;92014.78;2097552;28;20027;-83
2023/08/03 04:09:24;;;;;;;13.00;2.78;;;;;;;12.56;100.00;92028.59;2100293;28;20029;-86
2023/08/03 04:10:25;;;;;;;10.65;1.42;;;;;;;12.57;100.00;92032.00;2090479;28;20052;-85
2023/08/03 04:11:26;;;;;;;11.00;1.42;;;;;;;12.80;100.00;92025.91;2082328;28;20091;-85
2023/08/03 04:12:27;;;;;;;12.43;1.38;;;;;;;12.77;100.00;92034.13;2083184;28;20025;-83
2023/08/03 04:13:31;;;;;;;6.53;1.63;;;;;;;12.72;100.00;92045.47;2090684;28;20048;-83
2023/08/03 04:14:32;;;;;;;8.98;1.20;;;;;;;12.81;100.00;92029.34;2094820;28;20126;-83
2023/08/03 04:15:33;;;;;;;10.57;1.90;;;;;;;12.70;100.00;92034.47;2100531;28;20035;-85
2023/08/03 04:16:34;;;;;;;9.82;1.42;;;;;;;12.83;100.00;92029.63;2092271;28;20025;-84
2023/08/03 04:17:35;;;;;;;13.55;1.40;;;;;;;12.85;100.00;92029.91;2090219;28;20025;-82
2023/08/03 04:18:36;;;;;;;12.45;1.67;;;;;;;12.85;100.00;92038.69;2082464;28;20026;-85
2023/08/03 04:19:37;;;;;;;11.75;1.73;;;;;;;12.82;100.00;92045.00;2095368;28;20035;-83
2023/08/03 04:20:38;;;;;;;17.13;1.90;;;;;;;12.68;100.00;92053.69;2099040;28;20020;-83
2023/08/03 04:21:39;;;;;;;14.35;2.03;;;;;;;12.60;100.00;92042.56;2098384;28;20033;-84
2023/08/03 04:22:41;;;;;;;5.95;1.08;;;;;;;12.69;100.00;92044.47;2092838;28;20120;-84
2023/08/03 04:23:42;;;;;;;16.95;2.33;;;;;;;12.75;100.00;92034.59;2107050;28;20020;-85
2023/08/03 04:24:42;;;;;;;10.70;1.60;;;;;;;12.60;100.00;92031.09;2101325;28;20035;-84
2023/08/03 04:25:44;;;;;;;10.38;1.60;;;;;;;12.46;100.00;92037.09;2082316;28;20025;-85
2023/08/03 04:26:46;;;;;;;10.82;1.58;;;;;;;12.51;100.00;92029.22;2090546;28;20032;-85
2023/08/03 04:27:47;;;;;;;10.82;1.98;;;;;;;12.71;100.00;92038.63;2093715;28;20130;-84
2023/08/03 04:29:09;;;;;;;11.27;1.35;;;;;;;12.80;100.00;92023.22;2098176;28;20369;-84
2023/08/03 04:30:11;;;;;;;14.18;1.50;;;;;;;12.68;100.00;92023.44;2093462;28;20081;-85
2023/08/03 04:31:12;;;;;;;10.45;1.65;;;;;;;12.49;100.00;92036.94;2094772;28;20035;-84
2023/08/03 04:32:13;;;;;;;7.00;1.25;;;;;;;12.44;100.00;92032.22;2090548;28;20464;-84
2023/08/03 04:33:15;;;;;;;10.93;1.50;;;;;;;12.49;100.00;92038.88;2092776;28;20048;-85
2023/08/03 04:34:16;;;;;;;10.10;1.52;;;;;;;12.48;100.00;92038.16;2105280;28;20463;-84
2023/08/03 04:35:17;;;;;;;13.57;1.83;;;;;;;12.59;100.00;92030.34;2082016;28;20037;-83
2023/08/03 04:36:17;;;;;;;13.35;1.58;;;;;;;12.45;100.00;92043.66;2095061;28;20027;-85
2023/08/03 04:37:18;;;;;;;10.85;2.15;;;;;;;12.60;100.00;92042.56;2098657;28;20058;-84
2023/08/03 04:38:19;;;;;;;11.48;1.65;;;;;;;12.53;100.00;92055.56;2089688;28;20108;-82
2023/08/03 04:39:22;;;;;;;13.55;1.80;;;;;;;12.62;100.00;92041.38;2079672;28;20045;-85
2023/08/03 04:40:23;;;;;;;9.52;1.10;;;;;;;12.60;100.00;92050.59;2074512;28;20135;-83
2023/08/03 04:41:24;;;;;;;11.30;1.58;;;;;;;12.49;100.00;92045.00;2079340;28;20365;-84
2023/08/03 04:42:25;;;;;;;10.10;1.75;;;;;;;12.65;100.00;92048.50;2089802;28;20021;-85
2023/08/03 04:43:27;;;;;;;11.43;1.67;;;;;;;12.85;100.00;92067.44;2090453;28;20025;-82
2023/08/03 04:44:28;;;;;;;8.73;1.60;;;;;;;12.70;100.00;92062.03;2090426;28;20032;-83